Time;durP1;ratioP1;P1;durP2;ratioP2;P2;SDS_P1;SDS_P2;PMS_P1;PMS_P2;Temp;Humidity;BMP_temperature;BMP_pressure;BME280_temperature;BME280_humidity;BME280_pressure;Samples;Min_cycle;Max_cycle;Signal;HPM_P1;HPM_P2
2023/03/13 00:01:12;;;;;;;9.63;3.15;;;17.40;54.60;;;;;;5112683;28;20185;-72
2023/03/13 00:03:40;;;;;;;8.23;2.78;;;17.40;54.60;;;;;;5112602;28;20238;-73
2023/03/13 00:06:07;;;;;;;9.63;2.92;;;17.30;54.50;;;;;;5076855;28;20224;-73
2023/03/13 00:08:34;;;;;;;7.28;2.20;;;17.40;54.60;;;;;;5112545;28;20266;-73
2023/03/13 00:11:03;;;;;;;7.78;2.60;;;17.30;54.50;;;;;;5112743;28;20459;-73
2023/03/13 00:13:31;;;;;;;8.85;2.92;;;17.30;54.50;;;;;;5112597;28;20217;-72
2023/03/13 00:16:02;;;;;;;7.13;2.40;;;17.40;54.60;;;;;;5112206;28;20578;-72
2023/03/13 00:18:29;;;;;;;7.80;2.60;;;17.30;54.60;;;;;;5112474;28;20221;-73
2023/03/13 00:21:00;;;;;;;9.02;3.00;;;17.30;54.60;;;;;;5112281;28;20708;-73
2023/03/13 00:23:27;;;;;;;8.38;2.70;;;17.30;54.50;;;;;;5112576;28;20213;-73
2023/03/13 00:25:57;;;;;;;9.68;2.70;;;17.40;54.80;;;;;;5112082;28;20205;-73
2023/03/13 00:28:24;;;;;;;9.48;2.92;;;17.40;54.70;;;;;;5110971;28;20217;-70
2023/03/13 00:31:01;;;;;;;8.70;3.22;;;17.30;54.70;;;;;;5112472;28;20235;-70
2023/03/13 00:33:28;;;;;;;8.63;3.10;;;17.30;54.70;;;;;;5112125;28;20698;-69
2023/03/13 00:35:58;;;;;;;12.85;3.20;;;17.30;54.60;;;;;;5111839;28;20558;-70
2023/03/13 00:38:25;;;;;;;10.15;3.33;;;17.30;54.70;;;;;;5112311;28;20266;-70
2023/03/13 00:41:00;;;;;;;8.95;3.13;;;17.30;54.60;;;;;;5112001;28;20227;-70
2023/03/13 00:43:27;;;;;;;7.45;2.60;;;17.30;54.60;;;;;;5112383;28;20358;-70
2023/03/13 00:45:55;;;;;;;8.80;2.95;;;17.30;54.60;;;;;;5112268;28;20217;-70
2023/03/13 00:48:22;;;;;;;7.85;2.67;;;17.30;54.70;;;;;;5112207;28;20221;-70
2023/03/13 00:50:50;;;;;;;8.63;3.30;;;17.30;54.70;;;;;;5115273;28;20189;-70
2023/03/13 00:53:17;;;;;;;8.95;2.80;;;17.30;54.70;;;;;;5115668;28;20581;-70
2023/03/13 00:55:55;;;;;;;12.52;3.50;;;17.30;54.70;;;;;;5115920;28;20245;-70
2023/03/13 00:58:24;;;;;;;7.03;2.50;;;17.30;54.60;;;;;;5115486;28;20635;-70
2023/03/13 01:00:53;;;;;;;11.18;3.28;;;17.40;54.80;;;;;;5115749;28;20193;-70
2023/03/13 01:03:24;;;;;;;9.75;2.97;;;17.30;54.70;;;;;;5115472;28;20213;-70
2023/03/13 01:05:56;;;;;;;10.85;3.13;;;17.30;54.80;;;;;;5115613;28;20240;-70
2023/03/13 01:08:23;;;;;;;11.82;3.45;;;17.30;54.70;;;;;;5115212;28;20695;-70
2023/03/13 01:10:50;;;;;;;7.20;2.83;;;17.30;54.70;;;;;;5115291;28;20193;-70
2023/03/13 01:13:17;;;;;;;10.05;3.30;;;17.30;54.70;;;;;;5115250;28;20266;-70
2023/03/13 01:15:44;;;;;;;11.63;3.00;;;17.30;54.60;;;;;;5115210;28;20246;-70
2023/03/13 01:18:14;;;;;;;8.32;2.78;;;17.30;54.70;;;;;;5115376;28;20224;-70
2023/03/13 01:20:42;;;;;;;7.25;3.00;;;17.30;54.80;;;;;;5115652;28;20190;-70
2023/03/13 01:23:09;;;;;;;7.38;2.80;;;17.30;54.60;;;;;;5115279;28;20217;-70
2023/03/13 01:25:37;;;;;;;11.05;2.85;;;17.30;54.70;;;;;;5115228;28;20209;-70
2023/03/13 01:28:04;;;;;;;7.57;2.75;;;17.30;54.80;;;;;;5112229;28;20220;-72
2023/03/13 01:30:32;;;;;;;13.63;3.08;;;17.30;54.70;;;;;;5105564;27;20240;-73
2023/03/13 01:32:59;;;;;;;8.70;3.35;;;17.30;54.90;;;;;;5094176;28;20271;-72
2023/03/13 01:35:26;;;;;;;10.32;3.00;;;17.30;54.70;;;;;;5094793;28;20186;-73
2023/03/13 01:37:54;;;;;;;7.75;2.60;;;17.30;54.80;;;;;;5094415;28;20194;-73
2023/03/13 01:40:22;;;;;;;12.45;2.78;;;17.30;54.80;;;;;;5094199;28;20244;-72
2023/03/13 01:42:53;;;;;;;10.48;3.22;;;17.30;54.80;;;;;;5094113;28;20290;-73
2023/03/13 01:46:08;;;;;;;8.13;2.47;;;17.30;54.80;;;;;;5094493;28;20232;-72
2023/03/13 01:48:43;;;;;;;7.82;3.10;;;17.30;54.70;;;;;;5051392;28;20314;-72
2023/03/13 01:51:14;;;;;;;8.15;2.88;;;17.30;54.80;;;;;;5051576;28;20252;-72
2023/03/13 01:53:45;;;;;;;10.50;3.22;;;17.30;54.80;;;;;;5051575;28;20219;-72
2023/03/13 01:56:18;;;;;;;7.90;2.90;;;17.30;54.80;;;;;;5051529;28;20207;-72
2023/03/13 01:58:48;;;;;;;7.90;2.90;;;17.30;54.80;;;;;;5051408;28;20215;-72
2023/03/13 02:01:16;;;;;;;8.85;2.53;;;17.30;54.80;;;;;;5034764;28;20234;-73
2023/03/13 02:03:44;;;;;;;7.90;2.83;;;17.30;54.80;;;;;;5051357;28;20700;-73
2023/03/13 02:06:12;;;;;;;11.10;3.22;;;17.30;54.80;;;;;;5051306;28;20650;-73
2023/03/13 02:08:42;;;;;;;9.02;3.20;;;17.30;54.80;;;;;;5051298;28;20757;-72
2023/03/13 02:11:21;;;;;;;8.82;2.92;;;17.30;54.80;;;;;;5051297;28;20231;-72
2023/03/13 02:13:50;;;;;;;7.93;3.10;;;17.30;54.70;;;;;;5051226;28;20219;-73
2023/03/13 02:16:19;;;;;;;6.40;2.85;;;17.30;54.90;;;;;;5051165;28;20195;-72
2023/03/13 02:18:47;;;;;;;7.28;2.70;;;17.30;54.90;;;;;;5018043;28;20732;-72
2023/03/13 02:21:20;;;;;;;7.38;2.50;;;17.20;54.70;;;;;;5051039;28;20191;-73
2023/03/13 02:23:54;;;;;;;10.35;3.30;;;17.20;54.80;;;;;;5090537;28;20628;-72
2023/03/13 02:26:23;;;;;;;9.05;3.28;;;17.30;54.80;;;;;;5093647;28;20217;-72
2023/03/13 02:28:50;;;;;;;9.32;2.90;;;17.30;54.90;;;;;;5093588;28;20210;-72
2023/03/13 02:31:17;;;;;;;8.27;2.67;;;17.30;54.90;;;;;;5093332;28;20182;-73
2023/03/13 02:33:44;;;;;;;9.43;2.67;;;17.20;54.70;;;;;;5093540;28;20221;-72
2023/03/13 02:36:14;;;;;;;5.38;2.35;;;17.20;54.80;;;;;;5093552;28;20608;-72
2023/03/13 02:38:45;;;;;;;10.13;2.88;;;17.20;54.80;;;;;;5093517;28;20271;-73
2023/03/13 02:41:14;;;;;;;10.68;3.10;;;17.20;54.80;;;;;;5093010;28;20341;-72
2023/03/13 02:43:42;;;;;;;10.82;3.35;;;17.20;54.80;;;;;;5093328;28;20293;-72
2023/03/13 02:46:11;;;;;;;9.30;2.67;;;17.20;55.60;;;;;;5092960;28;20221;-73
2023/03/13 02:48:40;;;;;;;7.90;2.72;;;17.30;54.90;;;;;;5093306;28;20217;-72
2023/03/13 02:51:16;;;;;;;9.45;2.90;;;17.30;55.00;;;;;;5093020;28;20705;-73
2023/03/13 02:53:44;;;;;;;8.35;2.97;;;17.30;55.10;;;;;;5093261;28;20240;-72
2023/03/13 02:56:14;;;;;;;7.80;3.00;;;17.20;54.80;;;;;;5093273;28;20186;-73
2023/03/13 02:58:43;;;;;;;8.30;2.95;;;17.20;55.00;;;;;;5091818;28;20271;-72
2023/03/13 03:01:11;;;;;;;11.05;3.15;;;17.30;55.00;;;;;;5093136;28;20251;-72
2023/03/13 03:03:38;;;;;;;9.80;3.08;;;17.20;54.90;;;;;;5092784;28;20260;-72
2023/03/13 03:06:06;;;;;;;9.32;3.05;;;17.20;54.90;;;;;;5092605;28;20216;-72
2023/03/13 03:08:34;;;;;;;11.38;3.30;;;17.20;54.90;;;;;;5093000;28;20275;-72
2023/03/13 03:11:02;;;;;;;8.95;2.78;;;17.20;55.00;;;;;;5092882;28;20186;-72
2023/03/13 03:13:29;;;;;;;9.68;3.03;;;17.20;54.90;;;;;;5092464;28;20709;-73
2023/03/13 03:15:57;;;;;;;10.18;2.97;;;17.20;54.90;;;;;;5092349;28;20186;-73
2023/03/13 03:18:24;;;;;;;7.68;3.17;;;17.20;54.90;;;;;;5092811;28;20218;-72
2023/03/13 03:20:52;;;;;;;12.65;2.88;;;17.20;55.10;;;;;;5092506;28;20190;-73
2023/03/13 03:23:19;;;;;;;10.23;3.20;;;17.20;55.10;;;;;;5092555;28;20820;-72
2023/03/13 03:25:46;;;;;;;8.55;2.75;;;17.20;55.10;;;;;;5092688;28;20190;-72
2023/03/13 03:28:13;;;;;;;11.07;2.78;;;17.30;55.20;;;;;;5092286;28;20222;-72
2023/03/13 03:30:40;;;;;;;10.77;3.20;;;17.20;55.10;;;;;;5092649;28;20182;-72
2023/03/13 03:33:08;;;;;;;5.25;2.92;;;17.20;55.10;;;;;;5091336;28;20194;-72
2023/03/13 03:35:37;;;;;;;6.97;2.80;;;17.20;55.10;;;;;;5092330;28;20182;-72
2023/03/13 03:38:05;;;;;;;7.85;2.65;;;17.20;55.10;;;;;;5092465;28;20235;-72
2023/03/13 03:40:32;;;;;;;9.50;2.85;;;17.20;55.10;;;;;;5092542;28;20286;-72
2023/03/13 03:42:59;;;;;;;7.72;2.97;;;17.20;55.10;;;;;;5092172;28;20230;-72
2023/03/13 03:45:26;;;;;;;9.18;2.92;;;17.30;55.20;;;;;;5092173;28;20663;-72
2023/03/13 03:47:53;;;;;;;8.93;2.92;;;17.10;55.30;;;;;;5092190;28;20217;-72
2023/03/13 03:50:21;;;;;;;6.47;2.65;;;17.20;55.20;;;;;;5092502;28;20210;-72
2023/03/13 03:52:50;;;;;;;7.45;2.75;;;17.20;55.10;;;;;;5092346;28;20624;-72
2023/03/13 03:55:17;;;;;;;7.88;2.28;;;17.20;55.30;;;;;;5092204;28;20222;-72
2023/03/13 03:57:44;;;;;;;5.93;2.30;;;17.20;55.20;;;;;;5092041;28;20190;-72
2023/03/13 04:00:14;;;;;;;7.38;2.30;;;17.20;55.20;;;;;;5092460;28;20213;-73
2023/03/13 04:02:41;;;;;;;8.23;2.50;;;17.20;55.30;;;;;;5090943;28;20197;-72
2023/03/13 04:05:09;;;;;;;7.35;2.75;;;17.20;55.30;;;;;;5092198;28;20218;-72
2023/03/13 04:07:37;;;;;;;9.25;2.60;;;17.20;55.30;;;;;;5092178;28;20264;-72
2023/03/13 04:10:05;;;;;;;7.85;2.55;;;17.20;55.90;;;;;;5091917;28;20228;-72
2023/03/13 04:12:32;;;;;;;7.22;2.50;;;17.20;55.30;;;;;;5092327;28;20190;-73
2023/03/13 04:14:59;;;;;;;8.55;2.47;;;17.30;55.40;;;;;;5092316;28;20243;-72
2023/03/13 04:17:26;;;;;;;6.72;2.35;;;17.20;55.20;;;;;;5092144;28;20190;-72
2023/03/13 04:19:53;;;;;;;7.68;2.50;;;17.20;55.40;;;;;;5091922;28;20210;-72
2023/03/13 04:22:20;;;;;;;9.27;2.88;;;17.20;55.40;;;;;;5092149;28;20274;-72
2023/03/13 04:24:49;;;;;;;9.05;2.55;;;17.20;55.50;;;;;;5093770;28;20214;-72
2023/03/13 04:27:16;;;;;;;4.88;2.15;;;17.20;55.40;;;;;;5095625;28;20263;-72
2023/03/13 04:29:43;;;;;;;6.07;2.13;;;17.20;56.10;;;;;;5096449;28;20214;-72
2023/03/13 04:32:10;;;;;;;7.82;2.42;;;17.20;55.40;;;;;;5095958;28;20668;-72
2023/03/13 04:34:37;;;;;;;7.63;2.55;;;17.20;55.50;;;;;;5095998;28;20275;-72
2023/03/13 04:37:04;;;;;;;4.30;2.35;;;17.20;55.30;;;;;;5095509;28;20194;-72
2023/03/13 04:39:32;;;;;;;8.52;2.72;;;17.20;55.40;;;;;;5095808;28;20283;-72
2023/03/13 04:42:00;;;;;;;8.18;2.45;;;17.20;55.40;;;;;;5095463;28;20222;-72
2023/03/13 04:44:27;;;;;;;5.05;2.22;;;17.20;55.50;;;;;;5095655;28;20271;-72
2023/03/13 04:46:54;;;;;;;7.28;2.25;;;17.20;55.60;;;;;;5095208;28;20279;-72
2023/03/13 04:49:21;;;;;;;6.53;1.80;;;17.20;55.50;;;;;;5095726;28;20218;-73
2023/03/13 04:51:48;;;;;;;6.30;2.50;;;17.20;55.40;;;;;;5095472;28;20219;-72
2023/03/13 04:54:15;;;;;;;7.15;2.25;;;17.20;55.50;;;;;;5095613;28;20263;-72
2023/03/13 04:56:42;;;;;;;6.18;2.20;;;17.20;55.40;;;;;;5095466;28;20267;-72
2023/03/13 04:59:11;;;;;;;5.72;1.88;;;17.20;55.40;;;;;;5095478;28;20294;-72
2023/03/13 05:01:39;;;;;;;7.72;1.90;;;17.20;55.50;;;;;;5095079;28;20186;-72
2023/03/13 05:04:06;;;;;;;5.10;2.15;;;17.20;55.50;;;;;;5095516;28;20227;-72
2023/03/13 05:06:33;;;;;;;5.85;2.17;;;17.20;55.50;;;;;;5094944;28;20667;-72
2023/03/13 05:09:00;;;;;;;4.28;1.98;;;17.20;55.50;;;;;;5094905;28;20612;-72
2023/03/13 05:11:27;;;;;;;8.30;2.35;;;17.20;55.60;;;;;;5093643;28;20190;-72
2023/03/13 05:13:54;;;;;;;7.78;2.05;;;17.20;55.50;;;;;;5095217;28;20267;-72
2023/03/13 05:16:23;;;;;;;6.40;1.98;;;17.20;55.50;;;;;;5095087;28;20191;-72
2023/03/13 05:18:50;;;;;;;5.30;2.13;;;17.20;55.60;;;;;;5095128;28;20222;-72
2023/03/13 05:21:17;;;;;;;6.07;2.08;;;17.20;55.60;;;;;;5095035;28;20240;-72
2023/03/13 05:23:44;;;;;;;5.50;2.15;;;17.20;55.50;;;;;;5094862;28;20267;-73
2023/03/13 05:26:11;;;;;;;6.82;1.90;;;17.20;55.60;;;;;;5094946;28;20186;-72
2023/03/13 05:28:38;;;;;;;6.05;1.98;;;17.20;55.70;;;;;;5094396;28;20256;-72
2023/03/13 05:31:05;;;;;;;7.32;2.30;;;17.20;55.70;;;;;;5094806;28;20266;-72
2023/03/13 05:33:33;;;;;;;5.80;1.92;;;17.20;55.70;;;;;;5094775;28;20217;-72
2023/03/13 05:36:00;;;;;;;5.43;1.73;;;17.20;55.70;;;;;;5094450;28;20262;-72
2023/03/13 05:38:27;;;;;;;6.55;2.00;;;17.20;55.60;;;;;;5094303;28;20622;-72
2023/03/13 05:40:54;;;;;;;7.03;2.08;;;17.20;55.60;;;;;;5094708;28;20247;-72
2023/03/13 05:43:22;;;;;;;8.23;2.13;;;17.10;55.50;;;;;;5094164;28;20229;-72
2023/03/13 05:45:49;;;;;;;5.47;1.90;;;17.20;55.50;;;;;;5094602;28;20194;-73
2023/03/13 05:48:16;;;;;;;4.00;1.92;;;17.20;55.60;;;;;;5094639;28;20229;-72
2023/03/13 05:50:44;;;;;;;4.82;1.83;;;17.20;55.60;;;;;;5094152;28;20190;-72
2023/03/13 05:53:11;;;;;;;3.80;1.80;;;17.20;55.60;;;;;;5094085;28;20190;-72
2023/03/13 05:55:38;;;;;;;5.00;1.90;;;17.20;55.60;;;;;;5094242;28;20240;-72
2023/03/13 05:58:05;;;;;;;5.88;2.00;;;17.20;55.60;;;;;;5094289;28;20190;-72
2023/03/13 06:00:32;;;;;;;7.80;2.15;;;17.20;55.60;;;;;;5093983;28;20194;-72
2023/03/13 06:02:59;;;;;;;6.72;1.92;;;17.20;55.60;;;;;;5093885;28;20232;-72
2023/03/13 06:05:26;;;;;;;5.10;2.13;;;17.30;55.60;;;;;;5094129;28;20209;-73
2023/03/13 06:07:55;;;;;;;5.40;1.90;;;17.20;55.50;;;;;;5093764;28;20225;-73
2023/03/13 06:10:22;;;;;;;6.70;1.98;;;17.30;55.50;;;;;;5093964;28;20226;-72
2023/03/13 06:12:53;;;;;;;4.43;1.92;;;17.30;55.40;;;;;;5093757;28;20243;-72
2023/03/13 06:15:20;;;;;;;4.15;1.55;;;17.30;55.40;;;;;;5093823;28;20299;-72
2023/03/13 06:17:47;;;;;;;6.00;2.25;;;17.30;55.20;;;;;;5092389;28;20601;-72
2023/03/13 06:20:14;;;;;;;4.82;1.90;;;17.30;55.20;;;;;;5093783;28;20217;-72
2023/03/13 06:22:42;;;;;;;5.70;1.95;;;17.30;55.20;;;;;;5093774;28;20536;-72
2023/03/13 06:25:11;;;;;;;5.60;2.10;;;17.40;55.20;;;;;;5093618;28;20620;-72
2023/03/13 06:27:38;;;;;;;5.22;1.92;;;17.40;55.90;;;;;;5092201;28;20633;-72
2023/03/13 06:30:05;;;;;;;8.13;2.13;;;17.40;55.10;;;;;;5093783;28;20214;-72
2023/03/13 06:32:33;;;;;;;5.28;1.60;;;17.40;55.10;;;;;;5093261;28;20186;-72
2023/03/13 06:35:00;;;;;;;4.88;1.75;;;17.40;55.00;;;;;;5093795;28;20264;-72
2023/03/13 06:37:27;;;;;;;6.68;2.30;;;17.40;54.90;;;;;;5093141;28;20224;-72
2023/03/13 06:39:54;;;;;;;7.15;1.80;;;17.40;54.90;;;;;;5093394;28;20715;-72
2023/03/13 06:42:23;;;;;;;3.60;1.80;;;17.50;55.00;;;;;;5093131;28;20225;-72
2023/03/13 06:44:50;;;;;;;5.45;2.35;;;17.50;54.90;;;;;;5093387;28;20278;-72
2023/03/13 06:47:17;;;;;;;4.93;1.95;;;17.50;54.80;;;;;;5092622;28;20695;-72
2023/03/13 06:49:44;;;;;;;6.00;2.30;;;17.50;54.90;;;;;;5093365;28;20279;-73
2023/03/13 06:52:11;;;;;;;8.48;1.90;;;17.50;54.80;;;;;;5093296;28;20660;-72
2023/03/13 06:54:38;;;;;;;7.03;2.30;;;17.50;54.80;;;;;;5093357;28;20214;-73
2023/03/13 06:57:05;;;;;;;7.45;2.10;;;17.50;54.80;;;;;;5092834;28;20182;-72
2023/03/13 06:59:34;;;;;;;4.75;1.92;;;17.50;54.70;;;;;;5093109;28;20749;-73
2023/03/13 07:02:01;;;;;;;9.07;2.03;;;17.50;54.70;;;;;;5092813;28;20190;-72
2023/03/13 07:04:28;;;;;;;8.50;2.60;;;17.50;54.60;;;;;;5093170;28;20267;-72
2023/03/13 07:06:55;;;;;;;6.07;1.98;;;17.60;54.70;;;;;;5092939;28;20186;-72
2023/03/13 07:09:22;;;;;;;7.75;2.40;;;17.60;54.70;;;;;;5092647;28;20230;-72
2023/03/13 07:11:49;;;;;;;7.95;2.60;;;17.60;54.60;;;;;;5092679;28;20232;-72
2023/03/13 07:14:16;;;;;;;8.10;2.30;;;17.60;54.60;;;;;;5091451;28;20263;-72
2023/03/13 07:16:45;;;;;;;8.70;2.15;;;17.60;54.60;;;;;;5092579;28;20227;-72
2023/03/13 07:19:13;;;;;;;6.88;2.50;;;17.60;54.60;;;;;;5092660;28;20692;-73
2023/03/13 07:21:40;;;;;;;10.32;2.85;;;17.60;54.50;;;;;;5092766;28;20282;-72
2023/03/13 07:24:07;;;;;;;7.20;2.15;;;17.60;54.50;;;;;;5092866;28;20218;-72
2023/03/13 07:26:34;;;;;;;4.47;2.35;;;17.60;54.50;;;;;;5092384;28;20239;-72
2023/03/13 07:29:02;;;;;;;10.88;2.70;;;17.60;54.40;;;;;;5092707;28;20229;-72
2023/03/13 07:31:32;;;;;;;9.30;2.70;;;17.60;54.40;;;;;;5092647;28;20272;-72
2023/03/13 07:34:01;;;;;;;7.75;2.47;;;17.60;54.40;;;;;;5092725;28;20210;-72
2023/03/13 07:36:28;;;;;;;6.78;2.05;;;17.60;54.30;;;;;;5092784;28;20244;-72
2023/03/13 07:38:55;;;;;;;8.77;2.70;;;17.70;54.50;;;;;;5092410;28;20698;-72
2023/03/13 07:41:23;;;;;;;7.80;2.50;;;17.70;54.30;;;;;;5073556;28;20283;-72
2023/03/13 07:43:50;;;;;;;11.18;2.83;;;17.70;54.30;;;;;;5092583;28;20313;-72
2023/03/13 07:46:19;;;;;;;9.70;2.50;;;17.70;54.30;;;;;;5092283;28;20205;-72
2023/03/13 07:48:46;;;;;;;10.98;2.92;;;17.70;54.30;;;;;;5092268;28;20229;-72
2023/03/13 07:51:16;;;;;;;9.38;2.85;;;17.70;54.30;;;;;;5092193;28;20186;-72
2023/03/13 07:53:46;;;;;;;9.68;2.53;;;17.70;54.20;;;;;;5092265;28;20214;-72
2023/03/13 07:56:15;;;;;;;11.45;2.53;;;17.70;54.20;;;;;;5092096;28;20723;-72
2023/03/13 07:58:42;;;;;;;11.52;3.30;;;17.70;54.30;;;;;;5092248;28;20209;-72
2023/03/13 08:01:11;;;;;;;9.13;3.08;;;17.70;54.20;;;;;;5096645;28;20190;-72
2023/03/13 08:03:38;;;;;;;8.07;2.50;;;17.70;54.10;;;;;;5096413;28;20311;-72
2023/03/13 08:06:07;;;;;;;10.57;2.90;;;17.70;54.10;;;;;;5096455;28;20186;-72
2023/03/13 08:08:37;;;;;;;8.35;2.80;;;17.70;54.10;;;;;;5095918;28;20581;-72
2023/03/13 08:11:05;;;;;;;8.55;2.92;;;17.80;54.10;;;;;;5096066;28;20605;-72
2023/03/13 08:13:34;;;;;;;8.70;2.58;;;17.80;54.00;;;;;;5077205;28;20713;-72
2023/03/13 08:16:08;;;;;;;11.68;3.60;;;17.80;54.00;;;;;;5095985;28;20240;-72
2023/03/13 08:18:37;;;;;;;12.90;3.25;;;17.80;54.10;;;;;;5060312;28;20197;-72
2023/03/13 08:21:05;;;;;;;14.35;2.97;;;17.80;54.10;;;;;;5096208;28;20186;-72
2023/03/13 08:23:33;;;;;;;10.48;3.20;;;17.80;54.00;;;;;;5095769;28;20618;-72
2023/03/13 08:26:07;;;;;;;16.38;3.58;;;17.80;54.00;;;;;;5096095;28;20605;-72
2023/03/13 08:28:35;;;;;;;9.95;3.40;;;17.80;53.90;;;;;;5095921;28;20206;-72
2023/03/13 08:31:08;;;;;;;11.00;2.90;;;17.80;53.80;;;;;;5095793;28;20247;-72
2023/03/13 08:33:35;;;;;;;7.13;2.80;;;17.80;53.90;;;;;;5060132;28;20194;-72
2023/03/13 08:36:10;;;;;;;9.52;2.63;;;17.80;53.80;;;;;;5095471;28;20198;-72
2023/03/13 08:38:37;;;;;;;9.60;2.90;;;17.80;53.80;;;;;;5095782;28;20197;-72
2023/03/13 08:41:06;;;;;;;11.10;2.85;;;17.80;53.80;;;;;;5095679;28;20186;-71
2023/03/13 08:43:33;;;;;;;11.35;3.55;;;17.80;53.80;;;;;;5095374;28;20186;-72
2023/03/13 08:46:00;;;;;;;13.40;2.95;;;17.80;53.80;;;;;;5095448;28;20197;-72
2023/03/13 08:48:27;;;;;;;10.35;3.15;;;17.80;53.80;;;;;;5095554;28;20210;-72
2023/03/13 08:51:02;;;;;;;10.35;3.03;;;17.80;53.80;;;;;;5095707;28;20192;-72
2023/03/13 08:53:30;;;;;;;8.18;2.80;;;17.80;54.40;;;;;;5095184;28;20659;-72
2023/03/13 08:56:03;;;;;;;12.63;3.47;;;17.80;53.80;;;;;;5076932;28;20206;-72
2023/03/13 08:58:40;;;;;;;13.45;3.58;;;17.80;53.70;;;;;;5094979;28;20182;-72
2023/03/13 09:01:18;;;;;;;13.35;2.83;;;17.90;53.80;;;;;;5095484;28;20239;-72
2023/03/13 09:04:06;;;;;;;12.43;3.22;;;17.80;53.80;;;;;;5095027;28;20214;-72
2023/03/13 09:09:38;;;;;;;9.80;3.25;;;17.90;53.80;;;;;;5095029;28;20229;-72
2023/03/13 09:15:20;;;;;;;11.85;3.40;;;17.90;53.80;;;;;;4997096;28;20221;-72
2023/03/13 09:17:47;;;;;;;10.65;3.33;;;17.90;53.80;;;;;;5095316;28;20202;-72
2023/03/13 09:20:14;;;;;;;13.00;3.25;;;17.90;53.80;;;;;;5095269;28;20218;-72
2023/03/13 09:22:41;;;;;;;13.10;4.00;;;17.90;53.80;;;;;;5094817;28;20186;-72
2023/03/13 09:25:09;;;;;;;12.07;3.35;;;17.90;53.80;;;;;;5094891;28;20217;-72
2023/03/13 09:27:36;;;;;;;14.27;3.72;;;17.90;53.80;;;;;;5094572;28;20197;-72
2023/03/13 09:30:03;;;;;;;13.15;3.70;;;17.90;53.80;;;;;;5094873;28;20287;-72
2023/03/13 09:32:31;;;;;;;14.70;3.95;;;17.90;53.80;;;;;;5094834;28;20186;-72
2023/03/13 09:34:58;;;;;;;14.90;4.03;;;17.90;53.80;;;;;;5094551;28;20780;-72
2023/03/13 09:37:26;;;;;;;11.88;3.92;;;17.90;53.80;;;;;;5094793;28;20194;-72
2023/03/13 09:39:53;;;;;;;15.70;3.47;;;17.90;53.80;;;;;;5094506;28;20267;-72
2023/03/13 09:42:24;;;;;;;12.43;3.25;;;17.90;53.80;;;;;;5094532;28;20283;-72
2023/03/13 09:44:58;;;;;;;10.38;3.35;;;17.90;53.70;;;;;;5094374;28;20240;-72
2023/03/13 09:47:30;;;;;;;11.55;3.47;;;17.90;53.70;;;;;;5094240;28;20193;-72
2023/03/13 09:50:04;;;;;;;14.02;3.72;;;17.90;53.70;;;;;;5094357;27;20760;-72
2023/03/13 09:52:39;;;;;;;14.75;4.43;;;17.90;53.70;;;;;;5094401;28;20193;-72
2023/03/13 09:55:15;;;;;;;11.73;3.60;;;17.90;53.60;;;;;;5094583;28;20339;-72
2023/03/13 09:57:50;;;;;;;11.85;3.35;;;17.90;53.60;;;;;;5093225;28;20228;-72
2023/03/13 10:00:24;;;;;;;11.18;3.58;;;17.90;53.60;;;;;;5094212;28;20715;-72
2023/03/13 10:02:56;;;;;;;11.73;3.42;;;17.90;53.60;;;;;;5094013;28;20193;-72
2023/03/13 10:05:26;;;;;;;10.77;3.40;;;17.90;53.50;;;;;;5094161;28;20304;-72
2023/03/13 10:07:58;;;;;;;12.98;3.55;;;17.90;53.50;;;;;;5094134;28;20186;-72
2023/03/13 10:10:36;;;;;;;12.13;3.60;;;17.90;53.50;;;;;;5093950;28;20260;-72
2023/03/13 10:13:15;;;;;;;10.18;3.35;;;17.90;53.50;;;;;;5093967;28;20583;-72
2023/03/13 10:15:49;;;;;;;15.00;3.25;;;17.90;53.50;;;;;;5094075;28;20595;-72
2023/03/13 10:18:20;;;;;;;11.63;3.58;;;17.90;53.50;;;;;;5093604;28;20186;-72
2023/03/13 10:20:51;;;;;;;16.48;3.47;;;17.90;53.40;;;;;;5093850;28;20585;-72
2023/03/13 10:23:26;;;;;;;14.30;4.32;;;17.90;53.40;;;;;;5092521;28;20243;-72
2023/03/13 10:25:53;;;;;;;16.20;3.47;;;17.90;53.40;;;;;;5094225;28;20213;-72
2023/03/13 10:28:21;;;;;;;12.65;3.45;;;17.90;53.40;;;;;;5093670;28;20190;-72
2023/03/13 10:30:51;;;;;;;14.07;3.85;;;17.90;53.40;;;;;;5093883;28;20417;-72
2023/03/13 10:33:21;;;;;;;13.65;3.53;;;17.90;53.40;;;;;;5093746;28;20194;-72
2023/03/13 10:36:01;;;;;;;15.68;4.10;;;17.90;53.30;;;;;;5093738;28;20573;-72
2023/03/13 10:38:29;;;;;;;12.05;3.60;;;17.90;53.30;;;;;;5093468;28;20197;-72
2023/03/13 10:41:00;;;;;;;17.45;4.25;;;18.00;53.40;;;;;;5093645;28;20252;-72
2023/03/13 10:43:29;;;;;;;13.38;4.00;;;17.90;53.30;;;;;;5093530;28;20334;-72
2023/03/13 10:45:57;;;;;;;12.45;3.80;;;17.90;53.20;;;;;;5092968;28;20217;-72
2023/03/13 10:48:25;;;;;;;18.17;4.22;;;17.90;53.30;;;;;;5091762;28;20190;-72
2023/03/13 10:50:56;;;;;;;16.73;4.03;;;17.90;53.20;;;;;;5093240;28;20214;-72
2023/03/13 10:53:32;;;;;;;12.98;4.00;;;18.00;53.30;;;;;;5093341;28;20619;-72
2023/03/13 10:56:09;;;;;;;15.90;4.22;;;18.00;53.30;;;;;;5092815;28;20629;-72
2023/03/13 10:58:41;;;;;;;12.70;4.25;;;18.00;53.30;;;;;;5093404;28;20292;-72
2023/03/13 11:01:17;;;;;;;15.48;3.88;;;17.90;53.20;;;;;;5093148;28;20213;-72
2023/03/13 11:03:45;;;;;;;16.70;4.20;;;17.90;53.20;;;;;;5093122;28;20636;-72
2023/03/13 11:06:40;;;;;;;12.93;3.85;;;17.90;53.20;;;;;;5092965;28;20263;-72
2023/03/13 11:09:13;;;;;;;12.55;3.88;;;18.00;53.20;;;;;;5092723;28;20225;-72
2023/03/13 11:11:48;;;;;;;16.90;4.53;;;18.00;53.30;;;;;;5092635;28;20534;-72
2023/03/13 11:14:17;;;;;;;14.90;3.58;;;18.00;53.30;;;;;;5092919;28;20213;-72
2023/03/13 11:16:49;;;;;;;16.13;4.90;;;17.90;53.20;;;;;;5092685;28;20272;-72
2023/03/13 11:19:59;;;;;;;16.75;4.78;;;18.00;53.20;;;;;;5093116;28;20222;-72
2023/03/13 11:22:49;;;;;;;16.67;3.85;;;18.00;53.20;;;;;;5093164;28;20259;-72
2023/03/13 11:25:23;;;;;;;15.23;4.00;;;18.00;53.20;;;;;;5092870;28;20217;-72
2023/03/13 11:28:09;;;;;;;15.98;4.10;;;18.00;53.20;;;;;;5092612;28;20182;-72
2023/03/13 11:30:54;;;;;;;12.88;3.70;;;18.00;53.10;;;;;;5092558;28;20225;-72
2023/03/13 11:33:29;;;;;;;14.00;4.15;;;18.00;53.10;;;;;;5092007;28;20193;-72
2023/03/13 11:36:02;;;;;;;13.30;3.60;;;18.00;53.10;;;;;;5092878;28;20217;-72
2023/03/13 11:38:36;;;;;;;13.57;3.60;;;18.00;53.10;;;;;;5092549;28;20194;-72
2023/03/13 11:41:14;;;;;;;12.63;3.45;;;18.00;53.10;;;;;;5092509;28;20241;-72
2023/03/13 11:43:57;;;;;;;15.73;3.67;;;18.00;53.10;;;;;;5092265;28;20186;-72
2023/03/13 11:46:42;;;;;;;16.60;4.22;;;18.00;53.10;;;;;;5092494;28;20194;-72
2023/03/13 11:49:24;;;;;;;17.92;3.90;;;18.00;53.10;;;;;;5092167;28;20226;-72
2023/03/13 11:52:05;;;;;;;16.65;4.32;;;18.00;53.00;;;;;;5092486;28;20198;-72
2023/03/13 11:55:15;;;;;;;12.45;3.72;;;17.90;53.00;;;;;;5092790;28;20209;-72
2023/03/13 11:57:51;;;;;;;18.50;5.15;;;18.00;53.00;;;;;;5092426;28;20275;-72
2023/03/13 12:00:31;;;;;;;19.38;3.80;;;18.00;53.00;;;;;;5091364;28;20213;-72
2023/03/13 12:03:04;;;;;;;18.70;4.10;;;18.00;53.00;;;;;;5092540;28;20239;-72
2023/03/13 12:05:38;;;;;;;14.75;3.13;;;18.00;53.00;;;;;;5092572;28;20221;-72
2023/03/13 12:08:11;;;;;;;16.33;4.38;;;18.00;53.00;;;;;;5092335;28;20231;-72
2023/03/13 12:10:45;;;;;;;12.80;3.40;;;18.00;52.90;;;;;;5092131;28;20234;-72
2023/03/13 12:13:16;;;;;;;20.15;4.43;;;18.00;52.90;;;;;;5091959;28;20648;-72
2023/03/13 12:15:46;;;;;;;19.08;4.60;;;18.00;52.90;;;;;;5092301;28;20222;-72
2023/03/13 12:18:20;;;;;;;17.48;4.88;;;18.00;53.50;;;;;;5092232;28;20255;-72
2023/03/13 12:20:54;;;;;;;16.75;3.67;;;17.90;52.80;;;;;;5091944;28;20568;-72
2023/03/13 12:23:28;;;;;;;16.38;4.00;;;18.00;52.90;;;;;;5091877;28;20655;-72
2023/03/13 12:26:03;;;;;;;15.15;3.85;;;18.00;52.90;;;;;;5092082;28;20218;-72
2023/03/13 12:28:37;;;;;;;17.65;3.92;;;18.00;52.90;;;;;;5092154;28;20197;-72
2023/03/13 12:31:14;;;;;;;20.10;4.60;;;18.00;52.80;;;;;;5091850;28;20297;-72
2023/03/13 12:33:46;;;;;;;13.27;3.70;;;18.00;52.90;;;;;;5091732;28;20277;-72
2023/03/13 12:36:18;;;;;;;16.20;4.30;;;18.00;52.80;;;;;;5091738;28;20236;-72
2023/03/13 12:38:51;;;;;;;13.57;3.88;;;18.00;52.80;;;;;;5092062;28;20454;-72
2023/03/13 12:41:25;;;;;;;20.55;4.28;;;18.00;52.80;;;;;;5091451;28;20210;-71
2023/03/13 12:43:55;;;;;;;13.90;3.67;;;18.00;52.70;;;;;;5091635;28;20243;-72
2023/03/13 12:46:36;;;;;;;14.05;4.28;;;18.00;52.70;;;;;;5094270;28;20271;-72
2023/03/13 12:49:33;;;;;;;14.07;4.20;;;18.00;52.70;;;;;;5095187;28;20865;-72
2023/03/13 12:52:17;;;;;;;21.42;4.25;;;18.00;52.70;;;;;;5095449;28;20190;-72
2023/03/13 12:54:55;;;;;;;15.95;4.28;;;18.00;52.70;;;;;;5095433;28;20213;-72
2023/03/13 12:57:58;;;;;;;15.60;3.67;;;18.00;52.70;;;;;;5095476;28;20271;-72
2023/03/13 13:00:28;;;;;;;22.88;4.20;;;18.00;52.70;;;;;;5095094;28;20707;-72
2023/03/13 13:03:09;;;;;;;19.23;4.68;;;18.00;52.70;;;;;;5095391;28;20182;-72
2023/03/13 13:05:36;;;;;;;13.77;4.05;;;18.00;52.70;;;;;;5095392;28;20282;-72